Time;durP1;ratioP1;P1;durP2;ratioP2;P2;SDS_P1;SDS_P2;PMS_P1;PMS_P2;Temp;Humidity;BMP_temperature;BMP_pressure;BME280_temperature;BME280_humidity;BME280_pressure;Samples;Min_cycle;Max_cycle;Signal;HPM_P1;HPM_P2
2022/11/18 00:00:13;;;;;;;416.43;113.80;;;9.60;99.90;;;;;;5069239;28;20299;-52
2022/11/18 00:02:41;;;;;;;918.37;290.47;;;9.60;99.90;;;;;;5068849;28;20320;-51
2022/11/18 00:05:09;;;;;;;467.23;108.37;;;9.60;99.90;;;;;;5067659;28;20213;-51
2022/11/18 00:07:39;;;;;;;201.80;44.17;;;9.70;99.90;;;;;;5068593;28;20334;-50
2022/11/18 00:10:07;;;;;;;97.70;40.33;;;9.60;99.90;;;;;;5069054;28;20205;-51
2022/11/18 00:15:21;;;;;;;184.70;55.60;;;9.70;99.90;;;;;;5069039;28;20279;-50
2022/11/18 00:17:54;;;;;;;298.93;88.50;;;9.70;99.90;;;;;;5068662;28;20245;-50
2022/11/18 00:20:22;;;;;;;192.73;89.33;;;9.70;99.90;;;;;;5065733;28;20641;-51
2022/11/18 00:22:51;;;;;;;210.63;87.83;;;9.70;99.90;;;;;;5060985;28;20304;-51
2022/11/18 00:25:19;;;;;;;525.27;198.80;;;9.70;99.90;;;;;;5069050;28;20851;-51
2022/11/18 00:27:48;;;;;;;90.00;44.50;;;9.80;99.90;;;;;;5068460;28;20300;-51
2022/11/18 00:30:16;;;;;;;529.10;158.67;;;9.80;99.90;;;;;;5057511;28;20283;-51
2022/11/18 00:32:44;;;;;;;649.07;210.07;;;9.80;99.90;;;;;;5068096;28;20241;-51
2022/11/18 00:35:12;;;;;;;684.77;270.97;;;9.80;99.90;;;;;;5067782;28;20292;-50
2022/11/18 00:37:40;;;;;;;233.33;85.93;;;9.80;99.90;;;;;;5068168;28;20221;-50
2022/11/18 00:40:11;;;;;;;272.10;84.97;;;9.80;99.90;;;;;;5068531;28;20295;-50
2022/11/18 00:42:50;;;;;;;265.13;84.47;;;9.80;99.90;;;;;;5067852;28;20237;-51
2022/11/18 00:45:18;;;;;;;142.70;60.83;;;9.80;99.90;;;;;;5067476;28;20210;-50
2022/11/18 00:47:46;;;;;;;767.70;259.10;;;9.90;99.90;;;;;;5068549;28;20308;-51
2022/11/18 00:50:15;;;;;;;536.57;156.87;;;9.90;99.90;;;;;;5067953;28;20303;-50
2022/11/18 00:52:43;;;;;;;113.63;53.33;;;9.90;99.90;;;;;;5068479;28;20295;-51
2022/11/18 00:55:12;;;;;;;654.13;193.03;;;9.90;99.90;;;;;;5068192;28;20312;-51
2022/11/18 00:57:40;;;;;;;771.13;224.37;;;9.90;99.90;;;;;;5068280;28;20205;-50
2022/11/18 01:00:10;;;;;;;291.33;80.50;;;9.80;99.90;;;;;;5066901;28;20654;-50
2022/11/18 01:02:38;;;;;;;126.60;49.57;;;9.80;99.90;;;;;;5067016;28;20247;-50
2022/11/18 01:05:06;;;;;;;238.17;76.57;;;9.80;99.90;;;;;;5067674;28;20288;-51
2022/11/18 01:07:34;;;;;;;479.20;141.33;;;9.80;99.90;;;;;;5067896;28;20312;-51
2022/11/18 01:10:03;;;;;;;591.53;155.63;;;9.80;99.90;;;;;;5068445;28;20291;-51
2022/11/18 01:15:21;;;;;;;140.60;49.20;;;9.80;99.90;;;;;;5068314;28;20686;-50
2022/11/18 01:17:49;;;;;;;604.07;223.10;;;9.80;99.90;;;;;;5068266;28;20301;-51
2022/11/18 01:20:17;;;;;;;74.97;37.30;;;9.80;99.90;;;;;;5068251;28;20292;-52
2022/11/18 01:22:45;;;;;;;414.03;102.50;;;9.80;99.90;;;;;;5067788;28;20673;-51
2022/11/18 01:25:13;;;;;;;250.27;77.67;;;9.90;99.90;;;;;;5067576;28;20241;-51
2022/11/18 01:27:43;;;;;;;481.77;147.60;;;9.80;99.90;;;;;;5061157;28;20301;-51
2022/11/18 01:30:12;;;;;;;346.07;105.70;;;9.80;99.90;;;;;;5065802;28;20640;-51
2022/11/18 01:32:40;;;;;;;255.93;90.23;;;9.80;99.90;;;;;;5068012;28;20294;-51
2022/11/18 01:35:09;;;;;;;435.27;131.50;;;9.80;99.90;;;;;;5067412;28;20243;-50
2022/11/18 01:37:37;;;;;;;431.60;102.67;;;9.70;99.90;;;;;;5067944;28;20320;-52
2022/11/18 01:40:07;;;;;;;729.80;167.97;;;9.70;99.90;;;;;;5069672;28;20676;-51
2022/11/18 01:42:36;;;;;;;404.67;96.27;;;9.60;99.90;;;;;;5070869;28;20307;-51
2022/11/18 01:45:15;;;;;;;570.73;175.80;;;9.60;99.90;;;;;;5071104;28;20788;-52
2022/11/18 01:47:47;;;;;;;160.83;47.67;;;9.60;99.90;;;;;;5071912;28;20216;-51
2022/11/18 01:50:18;;;;;;;429.57;146.50;;;9.70;99.90;;;;;;5071119;28;20575;-51
2022/11/18 01:52:47;;;;;;;349.67;98.87;;;9.70;99.90;;;;;;5071254;28;20296;-51
2022/11/18 01:55:24;;;;;;;298.43;94.97;;;9.70;99.90;;;;;;5071645;28;20208;-51
2022/11/18 01:57:58;;;;;;;318.33;121.70;;;9.70;99.90;;;;;;5071064;28;20296;-51
2022/11/18 02:00:27;;;;;;;746.37;219.67;;;9.70;99.90;;;;;;5071343;28;20244;-52
2022/11/18 02:02:57;;;;;;;261.90;86.87;;;9.70;99.90;;;;;;5070781;28;20374;-52
2022/11/18 02:05:26;;;;;;;603.00;167.23;;;9.70;99.90;;;;;;5070125;28;20236;-51
2022/11/18 02:07:55;;;;;;;467.53;171.63;;;9.70;99.90;;;;;;5057246;28;20248;-52
2022/11/18 02:10:24;;;;;;;770.83;255.53;;;9.70;99.90;;;;;;5071028;28;20297;-51
2022/11/18 02:12:54;;;;;;;790.63;184.63;;;9.80;99.90;;;;;;5070210;28;20291;-51
2022/11/18 02:15:33;;;;;;;424.23;128.33;;;9.70;99.90;;;;;;5070701;28;20205;-51
2022/11/18 02:18:07;;;;;;;288.20;78.90;;;9.70;99.90;;;;;;5063438;28;20296;-51
2022/11/18 02:20:39;;;;;;;702.07;217.80;;;9.70;99.90;;;;;;5070877;28;20299;-51
2022/11/18 02:23:57;;;;;;;257.20;90.63;;;9.70;99.90;;;;;;5070383;28;20257;-51
2022/11/18 02:26:50;;;;;;;301.40;83.73;;;9.70;99.90;;;;;;5070138;28;20298;-51
2022/11/18 02:29:25;;;;;;;109.00;49.03;;;9.70;99.90;;;;;;5070297;28;20236;-51
2022/11/18 02:31:59;;;;;;;525.77;161.43;;;9.70;99.90;;;;;;5070403;28;20252;-51
2022/11/18 02:34:38;;;;;;;155.30;53.47;;;9.70;99.90;;;;;;5070234;28;20237;-51
2022/11/18 02:37:14;;;;;;;62.83;42.00;;;9.70;99.90;;;;;;5070520;28;21016;-51
2022/11/18 02:39:47;;;;;;;64.30;37.87;;;9.80;99.90;;;;;;5070616;28;20307;-51
2022/11/18 02:42:17;;;;;;;164.40;66.00;;;9.80;99.90;;;;;;5069766;28;20296;-51
2022/11/18 02:44:51;;;;;;;524.73;178.67;;;9.80;99.90;;;;;;5070188;28;20265;-51
2022/11/18 02:47:21;;;;;;;711.93;223.97;;;9.80;99.90;;;;;;5068265;28;20295;-51
2022/11/18 02:49:53;;;;;;;47.10;29.90;;;9.80;99.90;;;;;;5069983;28;20212;-51
2022/11/18 02:52:24;;;;;;;60.10;38.47;;;9.90;99.90;;;;;;5069337;28;20306;-50
2022/11/18 02:54:54;;;;;;;351.77;148.90;;;9.90;99.90;;;;;;5069921;28;20339;-50
2022/11/18 02:57:23;;;;;;;631.07;174.07;;;9.90;99.90;;;;;;5069342;28;20296;-51
2022/11/18 02:59:53;;;;;;;215.87;71.83;;;9.70;99.90;;;;;;5070243;28;20888;-51
2022/11/18 03:02:23;;;;;;;381.63;115.10;;;9.70;99.90;;;;;;5068841;28;20300;-51
2022/11/18 03:04:56;;;;;;;127.93;47.13;;;9.70;99.90;;;;;;5069500;28;20232;-52
2022/11/18 03:07:29;;;;;;;1724.70;314.13;;;9.70;99.90;;;;;;5069805;28;20212;-51
2022/11/18 03:10:00;;;;;;;380.57;111.63;;;9.70;99.90;;;;;;5057087;28;20204;-51
2022/11/18 03:12:39;;;;;;;302.17;105.37;;;9.60;99.90;;;;;;5059591;28;20295;-51
2022/11/18 03:15:15;;;;;;;289.37;99.13;;;9.60;99.90;;;;;;5056589;28;20284;-51
2022/11/18 03:17:54;;;;;;;257.77;82.00;;;9.50;99.90;;;;;;5069518;28;20443;-51
2022/11/18 03:20:27;;;;;;;604.83;169.93;;;9.50;99.90;;;;;;5069332;28;20303;-51
2022/11/18 03:23:00;;;;;;;54.50;30.53;;;9.50;99.90;;;;;;5069665;28;20292;-51
2022/11/18 03:25:34;;;;;;;64.10;41.43;;;9.50;99.90;;;;;;5063939;28;20399;-51
2022/11/18 03:28:09;;;;;;;520.70;160.37;;;9.40;99.90;;;;;;5068111;28;20213;-51
2022/11/18 03:30:45;;;;;;;451.40;126.50;;;9.40;99.90;;;;;;5058770;28;20273;-51
2022/11/18 03:33:22;;;;;;;106.50;45.03;;;9.30;99.90;;;;;;5069122;28;20311;-51
2022/11/18 03:35:53;;;;;;;49.77;24.93;;;9.30;99.90;;;;;;5069852;28;20197;-51
2022/11/18 03:38:27;;;;;;;133.87;58.47;;;9.30;99.90;;;;;;5069092;28;20299;-51
2022/11/18 03:41:00;;;;;;;78.63;40.07;;;9.30;99.90;;;;;;5069689;28;20304;-51
2022/11/18 03:43:34;;;;;;;211.00;63.33;;;9.30;99.90;;;;;;5068327;28;20252;-51
2022/11/18 03:46:08;;;;;;;50.43;29.23;;;9.30;99.90;;;;;;5069560;28;21036;-51
2022/11/18 03:48:42;;;;;;;213.73;60.27;;;9.30;99.90;;;;;;5068739;28;20970;-51
2022/11/18 03:51:14;;;;;;;181.30;81.43;;;9.30;99.90;;;;;;5058935;28;20250;-52
2022/11/18 03:53:47;;;;;;;229.93;58.13;;;9.30;99.90;;;;;;5068646;28;20254;-51
2022/11/18 03:56:18;;;;;;;159.33;66.10;;;9.30;99.90;;;;;;5069189;28;20234;-51
2022/11/18 03:58:53;;;;;;;112.33;50.83;;;9.30;99.90;;;;;;5068700;28;20295;-50
2022/11/18 04:01:31;;;;;;;595.03;165.83;;;9.30;99.90;;;;;;5067629;28;20786;-51
2022/11/18 04:04:00;;;;;;;329.07;114.80;;;9.30;99.90;;;;;;5068223;28;20315;-52
2022/11/18 04:06:35;;;;;;;257.30;92.43;;;9.30;99.90;;;;;;5069090;28;20631;-52
2022/11/18 04:09:09;;;;;;;86.47;43.07;;;9.30;99.90;;;;;;5069098;28;20299;-51
2022/11/18 04:12:02;;;;;;;216.97;82.97;;;9.30;99.90;;;;;;5061505;28;20201;-51
2022/11/18 04:14:32;;;;;;;259.83;77.80;;;9.30;99.90;;;;;;5068795;28;20244;-51
2022/11/18 04:17:07;;;;;;;73.87;39.33;;;9.20;99.90;;;;;;5068972;28;20636;-51
2022/11/18 04:19:35;;;;;;;100.53;46.90;;;9.30;99.90;;;;;;5068479;28;20301;-52
2022/11/18 04:22:04;;;;;;;632.37;197.23;;;9.30;99.90;;;;;;5068138;28;20320;-51
2022/11/18 04:24:32;;;;;;;435.63;141.60;;;9.30;99.90;;;;;;5068464;28;20325;-51
2022/11/18 04:27:01;;;;;;;229.93;58.70;;;9.30;99.90;;;;;;5063104;28;20302;-51
2022/11/18 04:29:29;;;;;;;464.07;138.43;;;9.20;99.90;;;;;;5064759;28;20263;-51
2022/11/18 04:31:57;;;;;;;157.37;59.03;;;9.20;99.90;;;;;;5068645;28;20292;-50
2022/11/18 04:34:27;;;;;;;352.60;120.07;;;9.20;99.90;;;;;;5067912;28;20756;-50
2022/11/18 04:36:55;;;;;;;213.70;73.87;;;9.30;99.90;;;;;;5068157;28;20211;-51
2022/11/18 04:39:23;;;;;;;108.67;54.50;;;9.30;99.90;;;;;;5068589;28;20295;-51
2022/11/18 04:41:58;;;;;;;220.13;74.37;;;9.30;99.90;;;;;;5068317;28;20317;-51
2022/11/18 04:44:27;;;;;;;214.27;79.43;;;9.30;99.90;;;;;;5067951;28;20252;-52
2022/11/18 04:46:56;;;;;;;174.23;65.67;;;9.30;99.90;;;;;;5068954;28;20297;-51
2022/11/18 04:49:27;;;;;;;76.67;41.83;;;9.40;99.90;;;;;;5068034;28;20883;-51
2022/11/18 04:51:56;;;;;;;217.83;57.33;;;9.30;99.90;;;;;;5068117;28;20287;-51
2022/11/18 04:54:25;;;;;;;317.10;81.50;;;9.20;99.90;;;;;;5068811;28;20228;-52
2022/11/18 04:56:54;;;;;;;68.17;29.93;;;9.20;99.90;;;;;;5058410;28;20290;-51
2022/11/18 04:59:24;;;;;;;55.43;28.27;;;9.20;99.90;;;;;;5059056;28;20232;-51
2022/11/18 05:01:53;;;;;;;125.90;45.47;;;9.30;99.90;;;;;;5063196;28;20216;-51
2022/11/18 05:04:25;;;;;;;337.57;114.73;;;9.30;99.90;;;;;;5067600;28;20312;-52
2022/11/18 05:06:54;;;;;;;100.10;49.57;;;9.40;99.90;;;;;;5068504;28;20309;-52
2022/11/18 05:09:22;;;;;;;418.13;99.10;;;9.40;99.90;;;;;;5062861;28;20206;-50
2022/11/18 05:14:43;;;;;;;274.67;88.87;;;9.30;99.90;;;;;;5071739;28;20321;-52
2022/11/18 05:17:17;;;;;;;50.27;23.97;;;9.30;99.90;;;;;;5072406;28;20298;-51
2022/11/18 05:19:45;;;;;;;129.63;59.87;;;9.30;99.90;;;;;;5071676;28;20407;-51
2022/11/18 05:22:16;;;;;;;357.07;99.23;;;9.40;99.90;;;;;;5071842;28;20341;-51
2022/11/18 05:24:44;;;;;;;114.80;41.60;;;9.40;99.90;;;;;;5071313;28;20306;-52
2022/11/18 05:27:13;;;;;;;67.67;33.63;;;9.40;99.90;;;;;;5071878;28;20235;-51
2022/11/18 05:29:41;;;;;;;102.30;44.80;;;9.40;99.90;;;;;;5069474;28;20268;-51
2022/11/18 05:32:09;;;;;;;115.33;52.03;;;9.40;99.90;;;;;;5071308;28;20288;-51
2022/11/18 05:34:37;;;;;;;197.70;74.10;;;9.30;99.90;;;;;;5058845;28;20316;-51
2022/11/18 05:37:05;;;;;;;147.37;62.93;;;9.30;99.90;;;;;;5069119;28;20292;-52
2022/11/18 05:39:35;;;;;;;162.03;46.50;;;9.30;99.90;;;;;;5069564;28;20766;-51
2022/11/18 05:44:49;;;;;;;52.43;29.73;;;9.30;99.90;;;;;;5071070;28;20312;-51
2022/11/18 05:47:24;;;;;;;144.30;85.77;;;9.40;99.90;;;;;;5071235;28;20246;-51
2022/11/18 05:49:53;;;;;;;311.37;156.03;;;9.40;99.90;;;;;;5071002;28;20257;-51
2022/11/18 05:52:21;;;;;;;734.33;247.47;;;9.40;99.90;;;;;;5070531;28;20800;-51
2022/11/18 05:54:51;;;;;;;171.27;47.23;;;9.40;99.90;;;;;;5065282;28;20274;-51
2022/11/18 05:57:19;;;;;;;340.27;116.03;;;9.40;99.90;;;;;;5068563;28;20277;-52
2022/11/18 05:59:47;;;;;;;117.03;43.97;;;9.40;99.90;;;;;;5071254;28;20753;-51
2022/11/18 06:02:18;;;;;;;229.03;92.87;;;9.40;99.90;;;;;;5070925;28;20311;-50
2022/11/18 06:04:50;;;;;;;219.57;57.87;;;9.40;99.90;;;;;;5070505;28;20228;-50
2022/11/18 06:07:21;;;;;;;168.50;44.47;;;9.40;99.90;;;;;;5071263;28;20310;-51
2022/11/18 06:09:56;;;;;;;126.30;44.30;;;9.40;99.90;;;;;;5071182;28;20213;-51
2022/11/18 06:12:36;;;;;;;211.60;77.23;;;9.40;99.90;;;;;;5070810;28;20575;-51
2022/11/18 06:15:09;;;;;;;176.20;60.70;;;9.50;99.90;;;;;;5069162;28;20303;-51
2022/11/18 06:17:51;;;;;;;64.47;32.33;;;9.50;99.90;;;;;;5067422;28;20239;-51
2022/11/18 06:20:20;;;;;;;130.40;41.63;;;9.40;99.90;;;;;;5070771;28;20239;-51
2022/11/18 06:22:51;;;;;;;284.97;111.53;;;9.40;99.90;;;;;;5070262;28;20284;-51
2022/11/18 06:25:20;;;;;;;98.50;37.87;;;9.40;99.90;;;;;;5069684;28;20761;-51
2022/11/18 06:27:51;;;;;;;129.83;50.60;;;9.40;99.90;;;;;;5070106;28;20724;-51
2022/11/18 06:30:19;;;;;;;260.93;85.27;;;9.40;99.90;;;;;;5071065;28;20299;-51
2022/11/18 06:32:47;;;;;;;158.73;62.30;;;9.40;99.90;;;;;;5070125;28;20241;-52
2022/11/18 06:35:16;;;;;;;315.57;100.20;;;9.40;99.90;;;;;;5073631;28;20284;-50
2022/11/18 06:37:44;;;;;;;92.90;36.13;;;9.40;99.90;;;;;;5080247;28;20204;-51
2022/11/18 06:40:13;;;;;;;107.33;51.30;;;9.50;99.90;;;;;;5070338;28;20241;-51
2022/11/18 06:45:28;;;;;;;245.63;79.50;;;9.40;99.90;;;;;;5082823;28;20235;-51
2022/11/18 06:47:57;;;;;;;128.10;39.53;;;9.30;99.90;;;;;;5091019;28;20280;-51
2022/11/18 06:50:25;;;;;;;343.20;105.67;;;9.30;99.90;;;;;;5076409;28;20254;-51
2022/11/18 06:52:53;;;;;;;63.93;32.37;;;9.20;99.90;;;;;;5075859;28;20736;-51
2022/11/18 06:55:21;;;;;;;317.60;101.57;;;9.30;99.90;;;;;;5090600;28;20303;-52
2022/11/18 06:57:50;;;;;;;211.33;84.73;;;9.30;99.90;;;;;;5089009;28;20294;-51
2022/11/18 07:00:19;;;;;;;158.03;53.83;;;9.30;99.90;;;;;;5079628;28;20291;-51
2022/11/18 07:02:47;;;;;;;112.50;46.20;;;9.20;99.90;;;;;;5089097;28;20260;-51
2022/11/18 07:05:15;;;;;;;99.87;41.57;;;9.20;99.90;;;;;;5085730;28;20241;-51
2022/11/18 07:07:43;;;;;;;676.67;170.47;;;9.20;99.90;;;;;;5082466;28;20303;-52
2022/11/18 07:10:11;;;;;;;777.90;236.17;;;9.20;99.90;;;;;;5075809;28;20207;-49
2022/11/18 07:12:39;;;;;;;790.43;239.70;;;9.10;99.90;;;;;;5089188;28;20205;-51
2022/11/18 07:15:10;;;;;;;155.13;51.67;;;9.10;99.90;;;;;;5089421;28;20235;-51
2022/11/18 07:17:38;;;;;;;373.70;128.80;;;9.10;99.90;;;;;;5090186;28;20236;-52
2022/11/18 07:20:07;;;;;;;125.60;62.50;;;9.10;99.90;;;;;;5089964;28;20299;-52
2022/11/18 07:22:35;;;;;;;279.83;91.90;;;9.10;99.90;;;;;;5084054;28;20256;-52
2022/11/18 07:25:03;;;;;;;203.60;65.03;;;9.10;99.90;;;;;;5090007;28;20224;-51
2022/11/18 07:27:31;;;;;;;375.67;123.10;;;9.20;99.90;;;;;;5075460;28;20701;-51
2022/11/18 07:29:59;;;;;;;55.27;32.80;;;9.20;99.90;;;;;;5083024;28;20319;-51
2022/11/18 07:32:29;;;;;;;195.03;65.10;;;9.20;99.90;;;;;;5075156;28;20977;-52
2022/11/18 07:34:57;;;;;;;109.27;35.63;;;9.20;99.90;;;;;;5089605;28;20246;-52
2022/11/18 07:37:25;;;;;;;470.53;168.83;;;9.20;99.90;;;;;;5089412;28;20313;-52
2022/11/18 07:39:53;;;;;;;93.57;38.07;;;9.20;99.90;;;;;;5090188;28;20240;-51
2022/11/18 07:42:21;;;;;;;100.33;39.40;;;9.30;99.90;;;;;;5086622;28;20310;-50
2022/11/18 07:44:49;;;;;;;647.30;185.37;;;9.30;99.90;;;;;;5077286;28;20776;-52
2022/11/18 07:47:17;;;;;;;566.97;170.87;;;9.30;99.90;;;;;;5086169;28;20292;-51
2022/11/18 07:49:46;;;;;;;339.77;120.40;;;9.30;99.90;;;;;;5089478;28;20737;-51
2022/11/18 07:52:14;;;;;;;343.83;116.53;;;9.30;99.90;;;;;;5069159;28;20738;-51
2022/11/18 07:54:42;;;;;;;507.20;101.80;;;9.30;99.90;;;;;;5057927;28;20224;-51
2022/11/18 07:57:10;;;;;;;182.37;59.97;;;9.40;99.90;;;;;;5068308;28;20655;-52
2022/11/18 07:59:38;;;;;;;714.73;164.03;;;9.40;99.90;;;;;;5069125;28;20303;-50
2022/11/18 08:02:06;;;;;;;561.40;128.67;;;9.40;99.90;;;;;;5068573;28;20316;-51
2022/11/18 08:04:37;;;;;;;865.87;183.20;;;9.40;99.90;;;;;;5068207;28;20315;-52
2022/11/18 08:07:09;;;;;;;395.30;116.70;;;9.40;99.90;;;;;;5068714;28;20586;-51
2022/11/18 08:09:37;;;;;;;868.63;272.27;;;9.50;99.90;;;;;;5068665;28;20209;-51
2022/11/18 08:12:06;;;;;;;697.47;239.47;;;9.50;99.90;;;;;;5068850;28;20289;-51
2022/11/18 08:14:34;;;;;;;1134.73;383.00;;;9.40;99.90;;;;;;5068333;28;20233;-51
2022/11/18 08:17:02;;;;;;;362.23;91.53;;;9.50;99.90;;;;;;5068773;28;20243;-51
2022/11/18 08:19:30;;;;;;;302.70;105.27;;;9.60;99.90;;;;;;5068686;28;20745;-51
2022/11/18 08:21:58;;;;;;;638.53;164.23;;;9.60;99.90;;;;;;5067488;28;20286;-51
2022/11/18 08:24:27;;;;;;;140.23;41.10;;;9.70;99.90;;;;;;5068598;28;20313;-52
2022/11/18 08:26:56;;;;;;;309.43;94.00;;;9.70;99.90;;;;;;5066231;28;20294;-51
2022/11/18 08:29:24;;;;;;;652.73;166.33;;;9.70;99.90;;;;;;5069162;28;20294;-51
2022/11/18 08:31:53;;;;;;;367.70;125.33;;;9.70;99.90;;;;;;5062056;28;20253;-51
2022/11/18 08:34:21;;;;;;;108.17;43.10;;;9.70;99.90;;;;;;5066920;28;20248;-51
2022/11/18 08:36:49;;;;;;;592.13;144.17;;;9.70;99.90;;;;;;5063445;28;20733;-51
2022/11/18 08:39:17;;;;;;;642.77;170.47;;;9.60;99.90;;;;;;5069012;28;20209;-50
2022/11/18 08:41:47;;;;;;;169.30;59.67;;;9.60;99.90;;;;;;5068042;28;20593;-50
2022/11/18 08:44:17;;;;;;;800.20;246.00;;;9.60;99.90;;;;;;5067782;28;20231;-50
2022/11/18 08:46:45;;;;;;;673.23;178.70;;;9.60;99.90;;;;;;5068704;28;20236;-51
2022/11/18 08:49:13;;;;;;;694.13;180.67;;;9.60;99.90;;;;;;5071310;28;20294;-51
2022/11/18 08:51:42;;;;;;;66.50;17.53;;;9.60;99.90;;;;;;5072832;28;20281;-51
2022/11/18 08:54:10;;;;;;;476.93;154.03;;;9.70;99.90;;;;;;5072277;28;20221;-51
2022/11/18 08:56:39;;;;;;;168.50;54.93;;;9.80;99.90;;;;;;5068477;28;20233;-51
2022/11/18 08:59:08;;;;;;;537.03;100.90;;;9.80;99.90;;;;;;5072556;28;20295;-52
2022/11/18 09:01:37;;;;;;;395.40;80.40;;;9.80;99.90;;;;;;5071921;28;20311;-51
2022/11/18 09:04:05;;;;;;;541.37;159.27;;;9.80;99.90;;;;;;5067970;28;20243;-52
2022/11/18 09:06:33;;;;;;;678.33;146.30;;;9.80;99.90;;;;;;5054898;28;20575;-51
2022/11/18 09:09:01;;;;;;;77.63;22.67;;;9.80;99.90;;;;;;5065420;28;20209;-52
2022/11/18 09:11:45;;;;;;;744.33;189.13;;;9.80;99.90;;;;;;5071643;28;20226;-50
2022/11/18 09:14:15;;;;;;;898.03;250.23;;;9.80;99.90;;;;;;5072229;28;20255;-52
2022/11/18 09:17:03;;;;;;;511.93;125.93;;;9.90;99.90;;;;;;5071923;28;20213;-51
2022/11/18 09:19:31;;;;;;;161.73;57.13;;;9.80;99.90;;;;;;5071562;28;20308;-51
2022/11/18 09:22:13;;;;;;;139.53;42.43;;;9.80;99.90;;;;;;5071638;28;20209;-51
2022/11/18 09:24:42;;;;;;;401.77;133.37;;;10.00;99.90;;;;;;5071441;28;20668;-51
2022/11/18 09:27:10;;;;;;;136.07;52.80;;;10.00;99.90;;;;;;5070214;28;20209;-52
2022/11/18 09:29:45;;;;;;;627.17;178.63;;;9.90;99.90;;;;;;5066282;28;20288;-51
2022/11/18 09:32:13;;;;;;;1038.37;407.40;;;10.00;99.90;;;;;;5070067;28;20299;-50
2022/11/18 09:34:41;;;;;;;201.60;58.90;;;10.10;99.90;;;;;;5071169;28;20229;-51
2022/11/18 09:37:09;;;;;;;654.27;106.67;;;10.30;99.90;;;;;;5071944;28;20639;-52
2022/11/18 09:39:37;;;;;;;827.10;194.00;;;10.50;99.90;;;;;;5072086;28;20299;-51
2022/11/18 09:42:29;;;;;;;438.50;145.60;;;10.50;99.90;;;;;;5071039;28;20750;-52
2022/11/18 09:45:11;;;;;;;814.77;196.67;;;10.60;99.90;;;;;;5081196;28;20260;-52
2022/11/18 09:47:44;;;;;;;658.57;158.73;;;10.60;99.90;;;;;;5092129;28;20291;-51
2022/11/18 09:50:15;;;;;;;833.17;247.20;;;10.60;99.90;;;;;;5091851;28;20205;-51
2022/11/18 09:53:15;;;;;;;1279.17;371.33;;;10.50;99.90;;;;;;5091537;28;20243;-52
2022/11/18 09:55:43;;;;;;;555.63;157.70;;;10.70;99.90;;;;;;5091878;28;20875;-51
2022/11/18 09:58:18;;;;;;;808.67;165.20;;;10.70;99.90;;;;;;5081230;28;20839;-51
2022/11/18 10:00:47;;;;;;;773.93;238.57;;;10.60;99.90;;;;;;5086701;28;20331;-52
2022/11/18 10:03:25;;;;;;;789.03;220.67;;;10.60;99.90;;;;;;5063660;28;20701;-51
2022/11/18 10:06:01;;;;;;;63.40;34.37;;;10.60;99.90;;;;;;5080076;28;20299;-51
2022/11/18 10:08:35;;;;;;;970.23;248.80;;;10.70;99.90;;;;;;5091561;28;20245;-52
2022/11/18 10:11:11;;;;;;;1010.60;269.93;;;10.70;99.90;;;;;;5081935;28;20262;-51
2022/11/18 10:13:51;;;;;;;833.67;196.50;;;10.70;99.90;;;;;;5090031;28;20216;-51
2022/11/18 10:16:32;;;;;;;197.60;61.20;;;10.80;99.90;;;;;;5091254;28;20242;-50
2022/11/18 10:19:09;;;;;;;295.47;106.10;;;10.70;99.90;;;;;;5091069;28;20290;-51
2022/11/18 10:21:48;;;;;;;1334.13;382.90;;;10.80;99.90;;;;;;5082339;28;20224;-51
2022/11/18 10:24:19;;;;;;;331.13;106.30;;;10.80;99.90;;;;;;5082419;28;20708;-51
2022/11/18 10:26:53;;;;;;;659.87;170.30;;;10.80;99.90;;;;;;5090269;28;20706;-51
2022/11/18 10:29:22;;;;;;;482.40;109.73;;;10.70;99.90;;;;;;5082541;28;20236;-52
2022/11/18 10:31:59;;;;;;;874.07;247.53;;;10.70;99.90;;;;;;5088589;28;20287;-51
2022/11/18 10:34:32;;;;;;;1201.83;318.80;;;10.90;99.90;;;;;;5077859;28;20222;-52
2022/11/18 10:37:03;;;;;;;797.30;233.97;;;10.90;99.90;;;;;;5087350;28;20208;-51
2022/11/18 10:39:31;;;;;;;425.60;135.93;;;10.90;99.90;;;;;;5090920;28;20291;-51
2022/11/18 10:42:04;;;;;;;354.00;130.43;;;10.90;99.90;;;;;;5086971;28;20196;-51
2022/11/18 10:44:36;;;;;;;892.37;273.83;;;10.90;99.90;;;;;;5065420;28;20309;-52
2022/11/18 10:47:26;;;;;;;830.13;218.27;;;10.90;99.90;;;;;;5085270;28;20201;-51
2022/11/18 10:49:56;;;;;;;1100.37;299.27;;;10.90;99.90;;;;;;5069046;28;20254;-51
2022/11/18 10:52:25;;;;;;;1138.80;312.47;;;10.90;99.90;;;;;;5089637;28;20287;-52
2022/11/18 10:55:09;;;;;;;633.77;226.23;;;10.90;99.90;;;;;;5086159;28;20220;-52
2022/11/18 10:57:42;;;;;;;617.73;171.50;;;10.90;99.90;;;;;;5082569;28;20263;-52
2022/11/18 11:00:44;;;;;;;620.13;192.73;;;10.90;99.90;;;;;;5087156;28;20212;-51
2022/11/18 11:03:35;;;;;;;1069.13;226.40;;;10.80;99.90;;;;;;5075763;28;20318;-51
2022/11/18 11:06:32;;;;;;;520.60;158.00;;;10.80;99.90;;;;;;5089212;28;20298;-52
2022/11/18 11:09:03;;;;;;;308.63;76.17;;;10.80;99.90;;;;;;5083368;28;20207;-50
2022/11/18 11:11:33;;;;;;;1999.90;617.50;;;10.90;99.90;;;;;;5090099;28;20205;-51
2022/11/18 11:14:14;;;;;;;889.40;251.13;;;10.80;99.90;;;;;;5089666;28;20259;-52
2022/11/18 11:16:48;;;;;;;1996.60;727.80;;;10.80;99.90;;;;;;5089862;28;20234;-51
2022/11/18 11:19:23;;;;;;;418.57;135.97;;;10.80;99.90;;;;;;5066605;28;20969;-51
2022/11/18 11:21:52;;;;;;;607.90;197.37;;;10.70;99.90;;;;;;5073887;28;20238;-52
2022/11/18 11:24:23;;;;;;;257.87;54.10;;;10.70;99.90;;;;;;5089602;28;20747;-51
2022/11/18 11:26:59;;;;;;;779.23;221.73;;;10.90;99.90;;;;;;5089335;28;20291;-51
2022/11/18 11:30:03;;;;;;;156.40;52.67;;;11.00;99.90;;;;;;5051574;28;20209;-51
2022/11/18 11:32:39;;;;;;;994.83;286.33;;;11.00;99.90;;;;;;5079959;28;20292;-52
2022/11/18 11:35:15;;;;;;;1091.33;267.10;;;11.10;99.90;;;;;;5085236;28;20214;-52
2022/11/18 11:37:52;;;;;;;1041.13;257.40;;;11.20;99.90;;;;;;5085977;28;20208;-51
2022/11/18 11:40:28;;;;;;;851.90;223.17;;;11.20;99.90;;;;;;5087256;28;20243;-51
2022/11/18 11:43:12;;;;;;;1600.47;469.97;;;11.30;99.90;;;;;;5065321;28;20239;-51
2022/11/18 11:46:00;;;;;;;1823.30;403.90;;;11.30;99.90;;;;;;5077408;28;20252;-51
2022/11/18 11:48:44;;;;;;;1182.47;291.17;;;11.40;99.90;;;;;;5087806;28;20296;-52
2022/11/18 11:51:20;;;;;;;477.80;103.23;;;11.30;99.90;;;;;;5088998;28;20296;-50
2022/11/18 11:54:15;;;;;;;602.97;153.87;;;11.40;99.90;;;;;;5089204;28;20933;-51
2022/11/18 11:56:49;;;;;;;1627.67;394.87;;;11.40;99.90;;;;;;5084238;28;20235;-51
2022/11/18 11:59:25;;;;;;;1381.10;367.87;;;11.50;99.90;;;;;;5087302;28;20667;-50
2022/11/18 12:02:20;;;;;;;373.53;90.00;;;11.50;99.90;;;;;;5084410;28;20290;-51
2022/11/18 12:04:52;;;;;;;1734.67;481.43;;;11.60;99.90;;;;;;5070074;28;20228;-51
2022/11/18 12:07:25;;;;;;;1290.13;410.47;;;11.60;99.90;;;;;;5073334;28;20297;-51
2022/11/18 12:10:20;;;;;;;1335.83;414.77;;;11.70;99.90;;;;;;5088213;28;20688;-52
2022/11/18 12:12:54;;;;;;;881.43;222.57;;;11.70;99.90;;;;;;5088736;28;20210;-52
2022/11/18 12:15:39;;;;;;;1032.20;268.23;;;11.70;99.90;;;;;;5065944;28;20267;-51
2022/11/18 12:18:15;;;;;;;833.57;221.63;;;11.80;99.90;;;;;;5088982;28;20204;-51
2022/11/18 12:20:46;;;;;;;1122.73;300.00;;;11.70;99.90;;;;;;5089168;28;20298;-52
2022/11/18 12:23:19;;;;;;;822.27;216.10;;;11.70;99.90;;;;;;5075010;28;20624;-51
2022/11/18 12:25:58;;;;;;;1480.50;461.33;;;11.80;99.90;;;;;;5088310;28;20311;-51
2022/11/18 12:28:30;;;;;;;443.50;138.63;;;11.70;99.90;;;;;;5061667;28;20959;-51
2022/11/18 12:31:35;;;;;;;790.83;224.27;;;11.80;99.90;;;;;;5088190;28;20295;-50
2022/11/18 12:34:18;;;;;;;750.67;221.70;;;11.70;99.90;;;;;;5063663;28;20244;-52
2022/11/18 12:36:46;;;;;;;1301.10;420.07;;;11.70;99.90;;;;;;5088859;28;20208;-52
2022/11/18 12:39:57;;;;;;;1125.63;268.83;;;11.70;99.90;;;;;;5089398;28;20303;-51
2022/11/18 12:45:57;;;;;;;1231.67;323.07;;;11.90;99.90;;;;;;5078627;28;20726;-50
2022/11/18 12:48:46;;;;;;;554.80;93.90;;;11.90;99.90;;;;;;5088856;28;20243;-51
2022/11/18 12:51:45;;;;;;;416.73;99.40;;;12.00;99.90;;;;;;5088391;28;20296;-51
2022/11/18 12:54:31;;;;;;;493.13;109.83;;;12.00;99.90;;;;;;5089007;28;20270;-51
2022/11/18 12:57:02;;;;;;;429.90;105.37;;;12.00;99.90;;;;;;5088814;28;20243;-51
2022/11/18 12:59:34;;;;;;;756.33;176.57;;;12.00;99.90;;;;;;5088137;28;20208;-51
2022/11/18 13:02:18;;;;;;;498.00;128.30;;;12.00;99.90;;;;;;5088037;28;21031;-51